createdAt,value
2023-01-13T00:03:40.319Z,18.67
2023-01-13T00:06:08.510Z,15.27
2023-01-13T00:08:35.955Z,18.38
2023-01-13T00:13:29.621Z,21.20
2023-01-13T00:16:01.403Z,27.25
2023-01-13T00:18:28.947Z,23.27
2023-01-13T00:21:04.264Z,23.83
2023-01-13T00:23:33.306Z,25.17
2023-01-13T00:26:02.572Z,28.10
2023-01-13T00:28:29.549Z,26.35
2023-01-13T00:30:58.536Z,22.63
2023-01-13T00:33:25.901Z,24.73
2023-01-13T00:35:59.848Z,24.60
2023-01-13T00:38:27.450Z,21.88
2023-01-13T00:41:10.248Z,24.65
2023-01-13T00:43:38.292Z,26.27
2023-01-13T00:46:08.098Z,23.83
2023-01-13T00:48:35.868Z,26.50
2023-01-13T00:51:05.577Z,19.17
2023-01-13T00:53:40.860Z,20.45
2023-01-13T00:56:09.966Z,19.33
2023-01-13T00:58:37.146Z,23.38
2023-01-13T01:01:07.140Z,24.77
2023-01-13T01:03:35.320Z,21.75
2023-01-13T01:06:18.240Z,24.00
2023-01-13T01:08:45.603Z,23.02
2023-01-13T01:13:44.838Z,20.88
2023-01-13T01:16:14.792Z,21.00
2023-01-13T01:18:44.547Z,23.45
2023-01-13T01:21:12.621Z,18.85
2023-01-13T01:23:40.412Z,23.25
2023-01-13T01:26:25.098Z,20.17
2023-01-13T01:28:52.732Z,24.15
2023-01-13T01:31:21.443Z,21.85
2023-01-13T01:33:48.978Z,20.83
2023-01-13T01:36:18.678Z,22.25
2023-01-13T01:38:46.373Z,20.98
2023-01-13T01:41:19.255Z,20.30
2023-01-13T01:44:04.245Z,21.02
2023-01-13T01:46:40.690Z,18.02
2023-01-13T01:49:11.182Z,22.67
2023-01-13T01:51:45.807Z,19.70
2023-01-13T01:54:19.710Z,18.10
2023-01-13T01:56:47.232Z,22.08
2023-01-13T01:59:14.655Z,20.98
2023-01-13T02:01:43.176Z,22.52
2023-01-13T02:04:15.515Z,20.38
2023-01-13T02:06:44.443Z,19.20
2023-01-13T02:09:12.472Z,18.85
2023-01-13T02:11:58.529Z,19.42
2023-01-13T02:14:28.846Z,19.02
2023-01-13T02:17:11.243Z,20.55
2023-01-13T02:19:44.194Z,20.17
2023-01-13T02:22:41.172Z,18.27
2023-01-13T02:25:43.027Z,19.33
2023-01-13T02:28:24.840Z,19.98
2023-01-13T02:31:22.182Z,17.58
2023-01-13T02:34:02.023Z,18.42
2023-01-13T02:36:39.657Z,17.70
2023-01-13T02:39:15.329Z,19.60
2023-01-13T02:42:34.397Z,17.20
2023-01-13T02:45:18.857Z,16.88
2023-01-13T02:47:50.305Z,14.65
2023-01-13T02:50:25.091Z,13.90
2023-01-13T02:52:58.901Z,16.52
2023-01-13T02:55:31.608Z,13.80
2023-01-13T02:58:01.180Z,18.20
2023-01-13T03:00:28.713Z,18.17
2023-01-13T03:02:55.428Z,16.45
2023-01-13T03:05:22.674Z,19.88
2023-01-13T03:08:17.718Z,19.05
2023-01-13T03:11:08.350Z,19.92
2023-01-13T03:13:50.308Z,19.67
2023-01-13T03:16:39.587Z,17.85
2023-01-13T03:19:09.240Z,20.67
2023-01-13T03:21:51.738Z,21.42
2023-01-13T03:24:21.695Z,17.48
2023-01-13T03:26:58.858Z,16.70
2023-01-13T03:29:36.233Z,12.90
2023-01-13T03:32:27.812Z,17.52
2023-01-13T03:35:15.157Z,16.75
2023-01-13T03:37:46.892Z,20.65
2023-01-13T03:40:18.752Z,17.98
2023-01-13T03:43:11.278Z,17.20
2023-01-13T03:45:41.168Z,17.73
2023-01-13T03:48:13.486Z,22.73
2023-01-13T03:50:45.977Z,21.17
2023-01-13T03:53:27.999Z,24.15
2023-01-13T03:56:02.710Z,17.58
2023-01-13T03:58:39.893Z,18.83
2023-01-13T04:01:15.947Z,11.48
2023-01-13T04:04:07.368Z,17.23
2023-01-13T04:06:47.319Z,16.60
2023-01-13T04:09:36.623Z,17.38
2023-01-13T04:12:52.202Z,17.13
2023-01-13T04:15:23.055Z,19.73
2023-01-13T04:17:51.294Z,20.08
2023-01-13T04:20:18.055Z,19.33
2023-01-13T04:22:44.715Z,12.70
2023-01-13T04:25:11.779Z,17.60
2023-01-13T04:27:38.503Z,21.55
2023-01-13T04:30:06.674Z,16.83
2023-01-13T04:32:33.387Z,14.35
2023-01-13T04:35:00.092Z,13.80
2023-01-13T04:37:26.809Z,12.68
2023-01-13T04:39:53.727Z,16.25
2023-01-13T04:42:20.406Z,16.90
2023-01-13T04:44:47.054Z,10.85
2023-01-13T04:47:13.736Z,9.60
2023-01-13T04:49:40.436Z,16.80
2023-01-13T04:52:07.249Z,20.10
2023-01-13T04:54:33.994Z,18.98
2023-01-13T04:57:00.762Z,20.88
2023-01-13T04:59:27.482Z,23.92
2023-01-13T05:01:54.230Z,21.95
2023-01-13T05:04:21.051Z,19.27
2023-01-13T05:06:47.779Z,19.05
2023-01-13T05:09:15.656Z,14.43
2023-01-13T05:12:01.156Z,16.35
2023-01-13T05:14:46.544Z,20.50
2023-01-13T05:17:20.114Z,17.17
2023-01-13T05:19:47.529Z,16.60
2023-01-13T05:25:18.466Z,18.42
2023-01-13T05:27:45.218Z,20.63
2023-01-13T05:30:12.293Z,17.23
2023-01-13T05:32:39.058Z,14.60
2023-01-13T05:35:06.054Z,18.95
2023-01-13T05:37:32.924Z,17.55
2023-01-13T05:40:18.476Z,19.40
2023-01-13T05:43:04.028Z,19.98
2023-01-13T05:45:31.749Z,23.30
2023-01-13T05:47:58.865Z,25.67
2023-01-13T05:50:25.613Z,23.27
2023-01-13T05:52:52.296Z,18.52
2023-01-13T05:55:18.970Z,18.98
2023-01-13T05:57:45.667Z,19.33
2023-01-13T06:00:12.843Z,24.58
2023-01-13T06:02:39.530Z,23.27
2023-01-13T06:05:06.495Z,16.25
2023-01-13T06:07:33.181Z,23.42
2023-01-13T06:09:59.935Z,23.30
2023-01-13T06:12:26.660Z,18.90
2023-01-13T06:14:53.317Z,18.75
2023-01-13T06:17:20.039Z,24.38
2023-01-13T06:19:46.807Z,17.75
2023-01-13T06:22:18.192Z,26.75
2023-01-13T06:24:50.442Z,22.83
2023-01-13T06:27:17.870Z,24.90
2023-01-13T06:29:44.711Z,24.75
2023-01-13T06:32:19.347Z,27.27
2023-01-13T06:34:51.365Z,27.70
2023-01-13T06:37:21.679Z,23.33
2023-01-13T06:39:49.222Z,25.00
2023-01-13T06:42:34.536Z,23.20
2023-01-13T06:45:01.466Z,29.83
2023-01-13T06:47:28.233Z,22.27
2023-01-13T06:49:54.974Z,26.63
2023-01-13T06:52:21.856Z,28.75
2023-01-13T06:54:48.665Z,26.52
2023-01-13T06:57:15.419Z,30.20
2023-01-13T06:59:42.070Z,20.77
2023-01-13T07:02:08.820Z,21.70
2023-01-13T07:04:35.611Z,23.98
2023-01-13T07:07:02.381Z,24.83
2023-01-13T07:09:29.047Z,21.65
2023-01-13T07:11:55.776Z,22.95
2023-01-13T07:14:41.259Z,17.55
2023-01-13T07:17:07.928Z,17.85
2023-01-13T07:19:34.668Z,22.05
2023-01-13T07:22:01.528Z,19.23
2023-01-13T07:24:28.207Z,20.58
2023-01-13T07:26:55.070Z,16.00
2023-01-13T07:29:21.768Z,25.17
2023-01-13T07:31:50.247Z,24.10
2023-01-13T07:34:17.085Z,22.70
2023-01-13T07:36:43.813Z,23.73
2023-01-13T07:39:10.645Z,19.27
2023-01-13T07:41:56.132Z,27.17
2023-01-13T07:44:22.841Z,28.83
2023-01-13T07:46:49.586Z,26.10
2023-01-13T07:49:16.256Z,18.73
2023-01-13T07:51:42.961Z,24.27
2023-01-13T07:54:09.745Z,24.95
2023-01-13T07:56:36.435Z,21.85
2023-01-13T07:59:03.835Z,27.27
2023-01-13T08:01:31.887Z,21.65
2023-01-13T08:04:00.205Z,22.67
2023-01-13T08:06:27.122Z,22.60
2023-01-13T08:08:54.969Z,23.52
2023-01-13T08:11:23.580Z,20.95
2023-01-13T08:13:50.628Z,21.33
2023-01-13T08:16:17.491Z,19.73
2023-01-13T08:18:44.365Z,20.73
2023-01-13T08:21:13.889Z,19.90
2023-01-13T08:23:44.651Z,16.33
2023-01-13T08:26:14.592Z,20.10
2023-01-13T08:28:41.397Z,19.95
2023-01-13T08:31:11.529Z,20.30
2023-01-13T08:33:38.466Z,21.17
2023-01-13T08:36:07.296Z,20.55
2023-01-13T08:38:34.972Z,20.15
2023-01-13T08:41:07.705Z,19.08
2023-01-13T08:43:34.376Z,16.58
2023-01-13T08:46:04.335Z,21.02
2023-01-13T08:48:31.629Z,19.70
2023-01-13T08:53:29.387Z,21.52
2023-01-13T08:55:56.839Z,19.58
2023-01-13T08:58:23.611Z,21.27
2023-01-13T09:00:50.500Z,20.95
2023-01-13T09:03:17.878Z,22.52
2023-01-13T09:08:11.330Z,16.77
2023-01-13T09:10:40.282Z,20.67
2023-01-13T09:13:11.780Z,16.75
2023-01-13T09:15:39.882Z,16.27
2023-01-13T09:18:06.614Z,22.13
2023-01-13T09:20:33.440Z,12.70
2023-01-13T09:23:00.417Z,18.27
2023-01-13T09:25:27.192Z,14.18
2023-01-13T09:27:53.949Z,17.00
2023-01-13T09:30:20.708Z,17.08
2023-01-13T09:32:47.401Z,11.27
2023-01-13T09:35:14.129Z,12.80
2023-01-13T09:37:41.465Z,16.67
2023-01-13T09:43:25.036Z,15.50
2023-01-13T09:46:01.455Z,15.82
2023-01-13T09:48:51.791Z,16.67
2023-01-13T09:51:31.740Z,15.77
2023-01-13T09:54:07.154Z,18.05
2023-01-13T09:56:33.864Z,15.88
2023-01-13T09:59:00.714Z,19.23
2023-01-13T10:01:41.591Z,14.68
2023-01-13T10:04:13.627Z,14.43
2023-01-13T10:06:44.163Z,15.48
2023-01-13T10:09:18.736Z,18.50
2023-01-13T10:12:08.009Z,17.92
2023-01-13T10:14:37.670Z,16.77
2023-01-13T10:17:07.299Z,18.08
2023-01-13T10:23:19.421Z,16.95
2023-01-13T10:26:06.351Z,18.05
2023-01-13T10:28:33.075Z,15.00
2023-01-13T10:31:00.332Z,15.02
2023-01-13T10:33:30.884Z,18.45
2023-01-13T10:36:05.091Z,34.30
2023-01-13T10:38:40.127Z,19.35
2023-01-13T10:41:20.039Z,13.90
2023-01-13T10:43:52.810Z,15.73
2023-01-13T10:46:20.583Z,12.32
2023-01-13T10:48:58.504Z,15.32
2023-01-13T10:51:28.200Z,17.13
2023-01-13T10:54:13.986Z,18.95
2023-01-13T10:56:43.186Z,21.50
2023-01-13T10:59:24.585Z,17.48
2023-01-13T11:02:13.160Z,11.25
2023-01-13T11:04:56.024Z,13.00
2023-01-13T11:07:57.978Z,14.27
2023-01-13T11:10:27.398Z,18.35
2023-01-13T11:12:57.169Z,18.48
2023-01-13T11:15:33.838Z,16.48
2023-01-13T11:18:17.823Z,15.30
2023-01-13T11:20:48.929Z,15.38
2023-01-13T11:23:15.583Z,17.17
2023-01-13T11:25:46.771Z,21.08
2023-01-13T11:28:20.869Z,16.40
2023-01-13T11:31:00.625Z,17.05
2023-01-13T11:33:55.350Z,25.95
2023-01-13T11:36:28.744Z,18.40
2023-01-13T11:39:01.769Z,15.52
2023-01-13T11:41:43.497Z,18.50
2023-01-13T11:44:26.152Z,13.35
2023-01-13T11:46:53.944Z,28.63
2023-01-13T11:49:39.038Z,24.08
2023-01-13T11:52:24.477Z,22.58
2023-01-13T11:55:22.753Z,22.33
2023-01-13T11:58:02.911Z,15.77
2023-01-13T12:01:04.924Z,11.23
2023-01-13T12:03:45.097Z,24.88
2023-01-13T12:06:24.081Z,39.28
2023-01-13T12:09:17.887Z,28.45
2023-01-13T12:12:22.905Z,19.05
2023-01-13T12:15:02.865Z,11.63
2023-01-13T12:18:13.330Z,10.07
2023-01-13T12:20:49.782Z,14.27
2023-01-13T12:23:39.135Z,11.98
2023-01-13T12:26:10.910Z,10.30
2023-01-13T12:28:44.614Z,11.02
2023-01-13T12:31:13.259Z,12.65
2023-01-13T12:34:04.302Z,14.55
2023-01-13T12:36:54.007Z,13.07
2023-01-13T12:39:50.317Z,19.10
2023-01-13T12:42:49.397Z,12.38
2023-01-13T12:45:17.801Z,11.60
2023-01-13T12:47:48.930Z,11.50
2023-01-13T12:50:24.890Z,14.23
2023-01-13T12:52:59.345Z,13.23
2023-01-13T12:55:34.289Z,18.52
2023-01-13T12:58:06.781Z,12.70
2023-01-13T13:00:42.344Z,15.48
2023-01-13T13:03:12.220Z,10.93
2023-01-13T13:05:48.786Z,13.25
2023-01-13T13:08:32.234Z,17.80
2023-01-13T13:11:32.434Z,18.33
2023-01-13T13:14:00.921Z,21.70
2023-01-13T13:16:29.004Z,17.63
2023-01-13T13:19:17.423Z,21.33
2023-01-13T13:22:07.067Z,20.08
2023-01-13T13:24:33.771Z,17.88
2023-01-13T13:27:18.635Z,17.33
2023-01-13T13:30:04.778Z,15.93
2023-01-13T13:32:44.390Z,19.25
2023-01-13T13:35:30.928Z,25.88
2023-01-13T13:38:34.868Z,23.77
2023-01-13T13:41:36.660Z,15.75
2023-01-13T13:44:50.334Z,18.02
2023-01-13T13:47:17.307Z,20.08
2023-01-13T13:49:52.493Z,16.17
2023-01-13T13:52:30.462Z,13.10
2023-01-13T13:55:08.361Z,13.90
2023-01-13T14:00:27.049Z,13.68
2023-01-13T14:02:59.114Z,14.80
2023-01-13T14:05:34.010Z,14.98
2023-01-13T14:08:03.888Z,15.73
2023-01-13T14:10:37.111Z,16.33
2023-01-13T14:13:22.202Z,22.95
2023-01-13T14:16:03.742Z,12.80
2023-01-13T14:18:47.598Z,13.45
2023-01-13T14:21:25.891Z,14.68
2023-01-13T14:23:58.988Z,13.07
2023-01-13T14:26:28.565Z,15.80
2023-01-13T14:28:57.092Z,16.42
2023-01-13T14:31:24.601Z,17.38
2023-01-13T14:33:55.026Z,18.98
2023-01-13T14:36:24.569Z,28.15
2023-01-13T14:39:14.869Z,28.88
2023-01-13T14:41:41.537Z,30.65
2023-01-13T14:44:28.042Z,23.48
2023-01-13T14:46:57.363Z,42.15
2023-01-13T14:49:36.043Z,32.38
2023-01-13T14:52:24.129Z,23.80
2023-01-13T14:54:52.163Z,20.00
2023-01-13T14:57:33.038Z,16.02
2023-01-13T15:00:05.339Z,16.25
2023-01-13T15:02:34.618Z,15.73
2023-01-13T15:05:19.483Z,17.75
2023-01-13T15:07:50.451Z,18.40
2023-01-13T15:10:19.186Z,14.80
2023-01-13T15:12:46.459Z,14.13
2023-01-13T15:15:25.057Z,17.42
2023-01-13T15:17:52.681Z,18.17
2023-01-13T15:20:22.337Z,18.35
2023-01-13T15:22:49.824Z,21.65
2023-01-13T15:25:16.567Z,21.02
2023-01-13T15:27:50.090Z,28.38
2023-01-13T15:30:20.118Z,24.50
2023-01-13T15:32:47.206Z,31.98
2023-01-13T15:35:17.306Z,39.20
2023-01-13T15:37:45.750Z,104.95
2023-01-13T15:40:18.789Z,48.67
2023-01-13T15:43:03.979Z,36.15
2023-01-13T15:45:51.062Z,33.50
2023-01-13T15:48:20.439Z,29.05
2023-01-13T15:50:47.499Z,32.70
2023-01-13T15:53:14.979Z,29.50
2023-01-13T15:55:44.759Z,29.58
2023-01-13T15:58:13.461Z,24.15
2023-01-13T16:00:41.143Z,19.80
2023-01-13T16:03:13.105Z,22.63
2023-01-13T16:05:43.962Z,28.52
2023-01-13T16:08:16.948Z,27.60
2023-01-13T16:10:44.940Z,27.30
2023-01-13T16:13:12.595Z,22.05
2023-01-13T16:15:44.502Z,20.75
2023-01-13T16:18:17.481Z,21.60
2023-01-13T16:20:44.764Z,25.98
2023-01-13T16:25:39.269Z,29.00
2023-01-13T16:30:36.940Z,38.40
2023-01-13T16:33:03.940Z,28.85
2023-01-13T16:35:35.234Z,19.73
2023-01-13T16:38:01.986Z,18.27
2023-01-13T16:40:31.428Z,21.10
2023-01-13T16:42:58.571Z,17.08
2023-01-13T16:45:25.447Z,21.15
2023-01-13T16:47:52.500Z,65.55
2023-01-13T16:50:28.705Z,95.93
2023-01-13T16:52:55.403Z,78.78
2023-01-13T16:55:22.107Z,21.52
2023-01-13T16:57:48.770Z,16.40
2023-01-13T17:00:16.187Z,14.45
2023-01-13T17:02:43.102Z,21.27
2023-01-13T17:05:12.352Z,13.88
2023-01-13T17:07:44.166Z,22.98
2023-01-13T17:10:16.353Z,18.13
2023-01-13T17:12:43.040Z,16.60
2023-01-13T17:15:14.480Z,16.65
2023-01-13T17:17:43.169Z,25.23
2023-01-13T17:20:14.510Z,18.02
2023-01-13T17:22:42.462Z,32.35
2023-01-13T17:25:13.113Z,22.02
2023-01-13T17:27:41.303Z,26.42
2023-01-13T17:30:09.566Z,20.52
2023-01-13T17:32:36.318Z,20.45
2023-01-13T17:35:03.092Z,24.27
2023-01-13T17:37:30.073Z,18.35
2023-01-13T17:39:56.763Z,27.95
2023-01-13T17:42:24.987Z,44.60
2023-01-13T17:44:51.850Z,35.17
2023-01-13T17:47:18.530Z,42.90
2023-01-13T17:49:45.657Z,34.63
2023-01-13T17:52:12.481Z,52.50
2023-01-13T17:54:39.875Z,45.05
2023-01-13T17:57:06.530Z,30.42
2023-01-13T17:59:33.206Z,37.65
2023-01-13T18:01:59.983Z,30.25
2023-01-13T18:04:30.841Z,23.55
2023-01-13T18:06:57.519Z,27.27
2023-01-13T18:09:24.354Z,15.23
2023-01-13T18:11:51.225Z,8.10
2023-01-13T18:14:18.833Z,7.53
2023-01-13T18:16:45.725Z,12.60
2023-01-13T18:19:41.443Z,13.43
2023-01-13T18:22:32.075Z,13.63
2023-01-13T18:25:17.483Z,15.07
2023-01-13T18:27:44.364Z,14.20
2023-01-13T18:30:12.569Z,17.75
2023-01-13T18:32:39.404Z,17.45
2023-01-13T18:35:10.078Z,21.42
2023-01-13T18:37:39.955Z,26.90
2023-01-13T18:40:09.222Z,26.25
2023-01-13T18:42:52.000Z,34.08
2023-01-13T18:45:24.426Z,23.38
2023-01-13T18:47:51.988Z,23.67
2023-01-13T18:50:18.890Z,12.07
2023-01-13T18:52:46.228Z,16.60
2023-01-13T18:57:40.396Z,18.85
2023-01-13T19:02:39.264Z,7.95
2023-01-13T19:05:06.507Z,15.35
2023-01-13T19:07:35.566Z,11.80
2023-01-13T19:10:04.303Z,10.65
2023-01-13T19:12:31.593Z,5.82
2023-01-13T19:17:27.098Z,4.43
2023-01-13T19:19:55.771Z,7.60
2023-01-13T19:22:32.588Z,10.73
2023-01-13T19:25:00.035Z,15.70
2023-01-13T19:27:27.741Z,15.00
2023-01-13T19:29:57.988Z,15.20
2023-01-13T19:32:25.289Z,9.85
2023-01-13T19:38:30.060Z,13.55
2023-01-13T19:41:27.281Z,15.32
2023-01-13T19:44:14.724Z,14.52
2023-01-13T19:46:41.535Z,7.50
2023-01-13T19:49:08.427Z,9.63
2023-01-13T19:51:35.113Z,9.65
2023-01-13T19:54:01.859Z,8.80
2023-01-13T19:56:29.432Z,9.85
2023-01-13T19:58:56.712Z,12.35
2023-01-13T20:04:02.794Z,13.15
2023-01-13T20:06:31.688Z,15.27
2023-01-13T20:08:59.317Z,19.48
2023-01-13T20:11:31.491Z,14.00
2023-01-13T20:13:59.227Z,13.57
2023-01-13T20:16:27.625Z,16.60
2023-01-13T20:18:54.928Z,22.88
2023-01-13T20:23:52.949Z,29.42
2023-01-13T20:26:20.757Z,19.38
2023-01-13T20:28:47.995Z,13.15
2023-01-13T20:33:42.980Z,7.95
2023-01-13T20:36:26.610Z,4.35
2023-01-13T20:38:58.711Z,8.50
2023-01-13T20:41:44.641Z,5.70
2023-01-13T20:44:12.451Z,3.50
2023-01-13T20:46:43.507Z,7.40
2023-01-13T20:49:11.888Z,5.93
2023-01-13T20:51:38.663Z,3.33
2023-01-13T20:54:05.512Z,2.28
2023-01-13T20:56:32.807Z,1.67
2023-01-13T20:58:59.536Z,1.23
2023-01-13T21:01:26.795Z,7.80
2023-01-13T21:06:24.190Z,2.60
2023-01-13T21:08:54.139Z,2.97
2023-01-13T21:11:41.421Z,3.33
2023-01-13T21:14:38.576Z,1.75
2023-01-13T21:17:05.989Z,3.67
2023-01-13T21:19:32.816Z,3.25
2023-01-13T21:21:59.510Z,1.40
2023-01-13T21:24:26.488Z,3.80
2023-01-13T21:26:59.272Z,1.30
2023-01-13T21:29:25.962Z,0.68
2023-01-13T21:31:54.116Z,2.55
2023-01-13T21:34:20.877Z,6.07
2023-01-13T21:36:47.579Z,2.28
2023-01-13T21:39:15.945Z,2.97
2023-01-13T21:42:01.742Z,4.85
2023-01-13T21:44:47.254Z,6.93
2023-01-13T21:47:34.934Z,8.05
2023-01-13T21:50:02.081Z,8.13
2023-01-13T21:52:28.775Z,11.35
2023-01-13T21:55:13.960Z,5.95
2023-01-13T21:57:44.158Z,5.68
2023-01-13T22:00:11.611Z,5.78
2023-01-13T22:02:38.377Z,6.05
2023-01-13T22:05:07.725Z,6.82
2023-01-13T22:07:36.278Z,6.35
2023-01-13T22:10:04.552Z,4.32
2023-01-13T22:12:31.372Z,5.20
2023-01-13T22:14:58.487Z,6.97
2023-01-13T22:17:27.591Z,5.90
2023-01-13T22:19:57.243Z,6.65
2023-01-13T22:31:53.203Z,2.10
2023-01-13T22:34:19.953Z,3.47
2023-01-13T22:36:46.627Z,1.88
2023-01-13T22:39:13.592Z,1.35
2023-01-13T22:41:40.282Z,3.20
2023-01-13T22:44:06.935Z,2.85
2023-01-13T22:46:33.630Z,1.17
2023-01-13T22:49:00.327Z,0.63
2023-01-13T22:51:27.269Z,0.15
2023-01-13T22:53:54.623Z,0.35
2023-01-13T22:58:56.250Z,0.45
2023-01-13T23:01:24.284Z,0.73
2023-01-13T23:03:51.092Z,2.72
2023-01-13T23:06:19.146Z,1.85
2023-01-13T23:08:46.770Z,2.88
2023-01-13T23:11:15.907Z,3.63
2023-01-13T23:13:43.868Z,1.35
2023-01-13T23:16:13.753Z,0.57
2023-01-13T23:18:47.947Z,4.45
2023-01-13T23:21:19.779Z,1.20
2023-01-13T23:23:46.906Z,0.50
2023-01-13T23:26:13.790Z,0.93
2023-01-13T23:28:40.486Z,1.63
2023-01-13T23:31:11.537Z,2.30
2023-01-13T23:33:38.235Z,2.03
2023-01-13T23:36:06.739Z,1.15
2023-01-13T23:38:33.483Z,1.58
2023-01-13T23:41:00.234Z,3.08
2023-01-13T23:43:27.269Z,2.08
2023-01-13T23:46:02.432Z,2.20
2023-01-13T23:48:29.416Z,5.32
2023-01-13T23:51:01.249Z,4.65
2023-01-13T23:53:39.948Z,4.82
2023-01-13T23:56:10.370Z,3.88
2023-01-13T23:58:37.149Z,1.98
